默认 日期 大小 文件数 浏览量 最新下载 xml
07.01磁力链接相关资源由用户搜索指令自动获取,结果来源于网络,本站不存储任何资料,亦不承担任何责任,请于24小时内删除,搜索到21370个磁力,显示前4000条数据,用时36ms。
    {"RARBG.com.txt": 34, "mwmp.15.07.01.nicole.aniston.mp4": 2402601800, "mwmp.15.07.01.nicole.aniston.nfo": 5201}
创建时间: 2018-12-19 01:32:48 大小:2.24 GB 文件数量:3 热度:34 最近下载:2025-10-14 00:04:01
    {"gd79-07-01.ffp": 1155, "gd79-07-01.93433.txt": 3718, "gd79-07-01d1t01.flac": 57588762 ... , "gd79-07-01d1t02 ... .flac": 55470592, "gd79-07-01d3t05.flac": 57719995, "gd79-07-01.93433.tagged.md5 ...
创建时间: 2018-12-19 01:34:10 大小:1.05 GB 文件数量:24 热度:8 最近下载:2024-11-26 02:05:01
    {"001.jpg": 1809335, "002.jpg": 2183069, "003.jpg": 2012579, "004.jpg": 2172653, "005.jpg": 1893003, "006.jpg": 1664161, "007.jpg": 1625898, "008.jpg": 2005006, "009.jpg": 1505519, "010.jpg": 1953388, "011.jpg": 2238370, "012.jpg": 1815700, "013.jpg": ...
创建时间: 2018-12-19 01:40:00 大小:161.87 MB 文件数量:97 热度:24 最近下载:2025-10-15 16:48:02
    ... {"02 Aurora.mp3": 14106666, "07 Neon Mines.mp3": 10896559, " ... Argon Refinery.mp3": 15496955, "01 Kinetic Harvest.mp3": 12527618, " ... STAGE~.mp3": 8524850, "07 Spark And Shadow ~POWER PLANT ... ~ENDING STAGE~.mp3": 8165679, "01 Prologue - Awakening Road ~OPENING - ...
创建时间: 2018-12-19 01:48:06 大小:647.7 MB 文件数量:120 热度:8 最近下载:2025-02-22 12:52:02
    {"RARBG.txt": 30, "atkgfs.18.07.01.bella.rose.4k.mp4": 2113776539, "atkgfs.18.07.01.bella.rose.4k.nfo": 5193}
创建时间: 2018-12-19 01:53:47 大小:1.97 GB 文件数量:3 热度:16 最近下载:2023-12-25 18:37:05
    {"RARBG.txt": 30, "footsiebabes.18.07.01.tiffany.tatum.the.tatum.treatment.mp4": 2103794568, "footsiebabes.18.07.01.tiffany.tatum.the.tatum.treatment.nfo": 5212}
创建时间: 2018-12-19 02:24:07 大小:1.96 GB 文件数量:3 热度:63 最近下载:2025-08-31 22:03:02
    {"file_id.diz": 699, "RARBG.com.txt": 34, "n471afbeeyes.nfo": 8681, "aidra_fox_s1-001.jpg": 1055733, "aidra_fox_s1-002.jpg": 1142223, "aidra_fox_s1-003.jpg": 1074679, "aidra_fox_s1-004.jpg": 1053006, "aidra_fox_s1-005.jpg": 1087438, "aidra_fox_s1-006.jpg": ...
创建时间: 2018-12-19 02:47:22 大小:80.19 MB 文件数量:84 热度:11 最近下载:2025-04-14 17:45:02
    {"Readme.txt": 4552, "Serial Key.txt": 254, "FSResizerSetup33.exe": 1588859, "FSResizer v3.3 Portable Original Eng": {"FSResizer33.zip": 1545114}, "FSResizer v3.3 RePack (& portable) Rus by ViPOL": {"Readme.txt": 2480, "History.txt": 984, "FSResizerSetup33 ...
创建时间: 2018-12-19 02:56:43 大小:4.53 MB 文件数量:7 热度:6 最近下载:2022-04-23 06:49:13
    ... .jpg": 2898363, "ValerieBodyAndSoul_2015-07-01_002xxxxl.jpg": 1876114, "ValerieBodyAndSoul_2015-07-01_003xxxxl.jpg": 3576409 ... .jpg": 2029500, "ValerieBodyAndSoul_2015-07-01_039xxxxl.jpg": 2171253, "ValerieBodyAndSoul_2015-07-01_040xxxxl.jpg": 1961013}
创建时间: 2018-12-19 03:17:11 大小:90.96 MB 文件数量:43 热度:13 最近下载:2025-05-08 14:54:01
    {"rytahd.wmv": 1186195163, "RARBG.com.txt": 34, "yp-gx150701rge.nfo": 8545}
创建时间: 2018-12-19 03:28:51 大小:1.1 GB 文件数量:3 热度:28 最近下载:2025-01-17 00:44:03
    {"reencode.mp4_000549300.jpg": 385730, "FamilyStrokes.15.07.01.Bree.Mitchells.XXX.MP4.mp4": 447079787, "FamilyStrokes.15.07.01.Bree.Mitchells.XXX.MP4_Snapshot.jpg": 148404}
创建时间: 2018-12-19 03:54:52 大小:426.88 MB 文件数量:3 热度:9 最近下载:2022-04-23 06:46:14
    {"Sample": {"nubilef.13.07.01.ria.rodrigez.proper.pussy.pounding-sample.mp4": 52575058}, "RARBG.com.txt": 34, "nubilef.13.07.01.ria.rodrigez.proper.pussy.pounding.mp4": 1562813357, "nubilef.13.07.01.ria.rodrigez.proper.pussy.pounding.nfo": 6995}
创建时间: 2018-12-19 03:57:12 大小:1.5 GB 文件数量:4 热度:21 最近下载:2025-06-29 14:32:02
    {"[EuroTeenErotica] Cassie Fire (09.01.2017) rq.mp4": 272663160}
创建时间: 2018-12-19 04:02:40 大小:260.03 MB 文件数量:1 热度:11 最近下载:2024-12-20 23:23:01
    {"fugli.nfo": 12178, "file_id.diz": 683, "RARBG.com.txt": 34, "bonnie101.jpg": 2637389, "bonnie102.jpg": 2620278, "bonnie103.jpg": 2494833, "bonnie104.jpg": 2457866, "bonnie105.jpg": 2441610, "bonnie106.jpg": 2686032, "bonnie107.jpg": 2425162, "bonnie108. ...
创建时间: 2018-12-19 04:06:33 大小:230.58 MB 文件数量:92 热度:12 最近下载:2025-08-01 03:26:06
    {"RARBG.com.txt": 34, "oro-anp.14.07.01.thco.mp4": 582608599, "oro-anp.14.07.01.thco.nfo": 7479}
创建时间: 2018-12-19 04:07:52 大小:555.63 MB 文件数量:3 热度:6 最近下载:2022-04-23 05:52:56
    {"RARBG.com.txt": 34, "girlgrind.16.07.01.aj.applegate.and.jaclyn.taylor.mp4": 1680790660, "girlgrind.16.07.01.aj.applegate.and.jaclyn.taylor.nfo": 5203}
创建时间: 2018-12-19 04:12:41 大小:1.57 GB 文件数量:3 热度:34 最近下载:2025-04-21 14:45:02
    {"RARBG.com.txt": 34, "p.16.07.01.elihjtoxm.xxx-failed.mp4": 866042574, "p.16.07.01.elihjtoxm.1080.xxx-failed.nfo": 1545}
创建时间: 2018-12-19 04:16:59 大小:825.92 MB 文件数量:3 热度:203 最近下载:2025-08-03 21:09:05
    {"RARBG.com.txt": 34, "dpg.16.07.01.jenna.sativa.and.tara.morgan.little.black.book.mp4": 1803324163, "dpg.16.07.01.jenna.sativa.and.tara.morgan.little.black.book.nfo": 5235}
创建时间: 2018-12-19 04:44:34 大小:1.68 GB 文件数量:3 热度:23 最近下载:2025-03-31 01:01:57
    {"RARBG.com.txt": 34, "twistys-130701-capriceeufrat-sexors.mp4": 924547995, "twistys-130701-capriceeufrat-sexors.nfo": 302}
创建时间: 2018-12-19 04:54:27 大小:881.72 MB 文件数量:3 热度:16 最近下载:2024-12-27 05:02:45
    {"file_id.diz": 694, "ha671ce2.nfo": 8691, "RARBG.com.txt": 34, "warning-cover.png": 173435, "RARBG.COM_XXX_BANNER.jpg": 517081, "cindy-euro-2016-board.jpg": 276768, "cindy-euro-2016-poster.jpg": 137539, "cindy-euro-2016-001-10000px.jpg": 2736823, "cindy- ...
创建时间: 2018-12-19 04:57:06 大小:229.79 MB 文件数量:112 热度:10 最近下载:2024-06-28 10:43:01